Time;durP1;ratioP1;P1;durP2;ratioP2;P2;SDS_P1;SDS_P2;PMS_P1;PMS_P2;Temp;Humidity;BMP_temperature;BMP_pressure;BME280_temperature;BME280_humidity;BME280_pressure;Samples;Min_cycle;Max_cycle;Signal;HPM_P1;HPM_P2
2022/09/30 00:01:48;;;;;;;8.25;4.35;;;9.80;99.90;;;;;;4909202;29;20414;-65
2022/09/30 00:04:20;;;;;;;9.07;4.57;;;9.70;99.90;;;;;;4913082;29;20052;-64
2022/09/30 00:06:46;;;;;;;7.45;4.65;;;9.70;99.90;;;;;;4901962;29;20484;-64
2022/09/30 00:09:14;;;;;;;10.25;4.63;;;9.70;99.90;;;;;;4905484;29;20118;-64
2022/09/30 00:11:41;;;;;;;6.10;4.07;;;9.70;99.90;;;;;;4891366;29;20130;-65
2022/09/30 00:14:13;;;;;;;7.32;4.55;;;9.70;99.90;;;;;;4917080;29;20391;-65
2022/09/30 00:16:38;;;;;;;6.63;4.05;;;9.70;99.90;;;;;;4917396;29;20056;-65
2022/09/30 00:19:04;;;;;;;11.63;4.60;;;9.70;99.90;;;;;;4919608;29;20050;-65
2022/09/30 00:21:32;;;;;;;6.85;4.35;;;9.60;99.90;;;;;;4910781;29;20044;-64
2022/09/30 00:23:59;;;;;;;7.38;4.32;;;9.60;99.90;;;;;;4916906;29;20040;-63
2022/09/30 00:26:25;;;;;;;8.60;4.60;;;9.50;99.90;;;;;;4898965;29;20052;-64
2022/09/30 00:28:53;;;;;;;9.00;4.50;;;9.50;99.90;;;;;;4915272;29;20044;-65
2022/09/30 00:31:20;;;;;;;9.93;4.68;;;9.50;99.90;;;;;;4910886;29;20058;-65
2022/09/30 00:36:52;;;;;;;9.50;5.28;;;9.40;99.90;;;;;;4913966;29;20410;-67
2022/09/30 00:39:21;;;;;;;9.60;6.45;;;9.20;99.90;;;;;;4906731;29;20037;-64
2022/09/30 00:41:50;;;;;;;9.70;5.97;;;9.40;99.90;;;;;;4914392;29;20087;-66
2022/09/30 00:44:46;;;;;;;8.38;5.25;;;9.40;99.90;;;;;;4909765;29;20070;-63
2022/09/30 00:47:34;;;;;;;11.93;6.53;;;9.30;99.90;;;;;;4912028;29;20108;-64
2022/09/30 00:50:11;;;;;;;11.15;6.07;;;9.30;99.90;;;;;;4906003;29;20048;-64
2022/09/30 00:52:37;;;;;;;10.55;6.40;;;9.30;99.90;;;;;;4917954;29;20043;-64
2022/09/30 00:55:08;;;;;;;12.55;6.30;;;9.30;99.90;;;;;;4918047;29;20040;-64
2022/09/30 00:57:35;;;;;;;8.70;5.85;;;9.30;99.90;;;;;;4913469;29;20044;-65
2022/09/30 01:00:01;;;;;;;10.25;5.57;;;9.30;99.90;;;;;;4891202;29;20063;-64
2022/09/30 01:02:27;;;;;;;7.40;5.47;;;9.30;99.90;;;;;;4916836;29;20131;-64
2022/09/30 01:04:55;;;;;;;11.32;5.85;;;9.30;99.90;;;;;;4917785;29;20124;-63
2022/09/30 01:07:22;;;;;;;9.02;5.13;;;9.40;99.90;;;;;;4909782;29;20060;-65
2022/09/30 01:09:48;;;;;;;7.32;4.90;;;9.40;99.90;;;;;;4916769;29;20048;-64
2022/09/30 01:12:19;;;;;;;8.40;4.68;;;9.40;99.90;;;;;;4906555;29;20096;-63
2022/09/30 01:14:47;;;;;;;9.27;5.07;;;9.50;99.90;;;;;;4916292;29;20139;-65
2022/09/30 01:17:45;;;;;;;8.18;5.47;;;9.50;99.90;;;;;;4917731;29;20044;-65
2022/09/30 01:21:02;;;;;;;7.18;4.82;;;9.50;99.90;;;;;;4907137;29;20048;-64
2022/09/30 01:23:56;;;;;;;7.97;5.30;;;9.50;99.90;;;;;;4890984;29;20063;-63
2022/09/30 01:26:59;;;;;;;7.38;5.35;;;9.50;99.90;;;;;;4912909;29;20139;-63
2022/09/30 01:30:01;;;;;;;10.52;5.80;;;9.50;99.90;;;;;;4917669;29;20133;-65
2022/09/30 01:33:02;;;;;;;10.50;5.55;;;9.50;99.90;;;;;;4915224;29;20056;-63
2022/09/30 02:04:02;;;;;;;11.07;5.68;;;9.40;99.90;;;;;;5301789;23;20107;-65
2022/09/30 02:06:36;;;;;;;8.93;5.97;;;9.40;99.90;;;;;;4909360;29;20040;-64
2022/09/30 02:09:17;;;;;;;9.98;5.00;;;9.30;99.90;;;;;;4902732;29;20048;-65
2022/09/30 02:11:45;;;;;;;8.27;4.50;;;9.30;99.90;;;;;;4893343;29;20086;-65
2022/09/30 02:14:43;;;;;;;7.90;5.28;;;9.30;99.90;;;;;;4898081;29;20498;-64
2022/09/30 02:17:34;;;;;;;10.63;5.38;;;9.20;99.90;;;;;;4916446;29;20494;-64
2022/09/30 02:20:09;;;;;;;12.65;6.25;;;9.20;99.90;;;;;;4904343;29;20078;-64
2022/09/30 02:22:43;;;;;;;6.68;5.20;;;9.10;99.90;;;;;;4911021;29;20139;-64
2022/09/30 02:25:19;;;;;;;10.45;5.18;;;9.00;99.90;;;;;;4894800;29;20066;-65
2022/09/30 02:27:53;;;;;;;8.13;5.28;;;9.00;99.90;;;;;;4905161;29;20039;-65
2022/09/30 02:30:19;;;;;;;6.97;4.93;;;8.90;99.90;;;;;;4910453;29;20079;-65
2022/09/30 02:32:58;;;;;;;7.47;4.85;;;8.90;99.90;;;;;;4911866;29;20036;-64
2022/09/30 02:35:33;;;;;;;7.80;5.03;;;8.80;99.90;;;;;;4916045;29;20424;-64
2022/09/30 02:38:04;;;;;;;7.57;4.95;;;8.80;99.90;;;;;;4910629;29;20048;-65
2022/09/30 02:40:40;;;;;;;8.63;5.53;;;8.70;99.90;;;;;;4916416;29;20104;-63
2022/09/30 02:43:07;;;;;;;9.45;5.28;;;8.80;99.90;;;;;;4915085;29;20406;-64
2022/09/30 02:46:08;;;;;;;9.98;5.88;;;8.60;99.90;;;;;;4909464;29;20040;-64
2022/09/30 02:48:51;;;;;;;10.27;5.95;;;8.60;99.90;;;;;;4905783;29;20470;-63
2022/09/30 02:51:34;;;;;;;12.48;5.43;;;8.50;99.90;;;;;;4913595;29;20040;-64
2022/09/30 02:54:18;;;;;;;7.07;4.90;;;8.90;99.90;;;;;;4907678;29;20055;-64
2022/09/30 02:56:58;;;;;;;11.38;5.28;;;8.50;99.90;;;;;;4915734;29;20052;-63
2022/09/30 02:59:25;;;;;;;6.47;4.82;;;8.50;99.90;;;;;;4899015;29;21973;-64
2022/09/30 03:01:51;;;;;;;7.45;5.30;;;8.40;99.90;;;;;;4896784;29;20379;-65
2022/09/30 03:04:25;;;;;;;7.50;5.15;;;8.40;99.90;;;;;;4895786;29;20101;-63
2022/09/30 03:06:51;;;;;;;9.63;6.32;;;8.40;99.90;;;;;;4880201;29;20040;-64
2022/09/30 03:09:17;;;;;;;10.00;6.57;;;8.40;99.90;;;;;;4897267;29;20497;-63
2022/09/30 03:11:44;;;;;;;9.73;6.68;;;8.30;99.90;;;;;;4893490;29;20044;-65
2022/09/30 03:14:32;;;;;;;10.13;6.43;;;8.30;99.90;;;;;;4878898;29;20387;-64
2022/09/30 03:17:20;;;;;;;8.75;5.63;;;8.30;99.90;;;;;;4895096;29;20418;-63
2022/09/30 03:19:56;;;;;;;8.80;6.07;;;8.30;99.90;;;;;;4890810;29;20510;-64
2022/09/30 03:22:46;;;;;;;8.95;6.00;;;8.30;99.90;;;;;;4891618;29;20379;-64
2022/09/30 03:25:36;;;;;;;8.23;5.75;;;8.30;99.90;;;;;;4896151;29;20044;-63
2022/09/30 03:28:17;;;;;;;8.57;6.10;;;8.20;99.90;;;;;;4891839;29;20052;-65
2022/09/30 03:31:11;;;;;;;9.35;6.40;;;8.20;99.90;;;;;;4896964;29;20079;-65
2022/09/30 03:34:08;;;;;;;8.25;5.40;;;8.20;99.90;;;;;;4897595;29;20040;-64
2022/09/30 03:36:48;;;;;;;7.68;5.75;;;8.10;99.90;;;;;;4885851;29;20057;-64
2022/09/30 03:39:22;;;;;;;10.00;5.35;;;8.10;99.90;;;;;;4896488;29;20124;-64
2022/09/30 03:42:25;;;;;;;8.40;5.50;;;8.10;99.90;;;;;;4897202;29;20550;-64
2022/09/30 03:45:19;;;;;;;7.13;5.75;;;8.10;99.90;;;;;;4843194;29;20064;-64
2022/09/30 03:47:50;;;;;;;7.40;5.75;;;8.10;99.90;;;;;;4900347;29;20431;-63
2022/09/30 03:50:22;;;;;;;6.82;5.70;;;8.10;99.90;;;;;;4884004;29;20112;-66
2022/09/30 03:52:51;;;;;;;6.85;5.32;;;8.00;99.90;;;;;;4892637;29;20048;-63
2022/09/30 03:55:18;;;;;;;6.80;5.53;;;8.00;99.90;;;;;;4900216;29;20139;-64
2022/09/30 03:57:44;;;;;;;7.15;5.40;;;8.00;99.90;;;;;;4900750;29;20064;-63
2022/09/30 04:00:11;;;;;;;7.18;5.72;;;8.00;99.90;;;;;;4887086;29;20040;-64
2022/09/30 04:02:37;;;;;;;7.35;5.78;;;7.90;99.90;;;;;;4901193;29;20057;-65
2022/09/30 04:05:05;;;;;;;6.95;5.20;;;7.90;99.90;;;;;;4900923;29;20134;-63
2022/09/30 04:07:31;;;;;;;6.97;5.80;;;7.90;99.90;;;;;;4899469;29;20052;-64
2022/09/30 04:09:56;;;;;;;7.20;6.03;;;7.90;99.90;;;;;;4898074;29;20051;-64
2022/09/30 04:12:22;;;;;;;6.60;5.90;;;7.90;99.90;;;;;;4898324;29;20052;-64
2022/09/30 04:14:48;;;;;;;6.93;5.22;;;7.90;99.90;;;;;;4898366;29;20074;-64
2022/09/30 04:17:14;;;;;;;8.77;6.03;;;7.80;99.90;;;;;;4896923;29;20495;-64
2022/09/30 04:19:39;;;;;;;6.53;5.38;;;7.80;99.90;;;;;;4865862;29;20127;-64
2022/09/30 04:22:08;;;;;;;5.88;5.15;;;7.90;99.90;;;;;;4896532;29;20064;-64
2022/09/30 04:24:34;;;;;;;6.60;5.32;;;7.80;99.90;;;;;;4873300;29;20139;-64
2022/09/30 04:27:00;;;;;;;7.15;5.18;;;8.10;99.90;;;;;;4858730;29;20041;-63
2022/09/30 04:29:26;;;;;;;7.22;5.28;;;7.80;99.90;;;;;;4894297;29;20059;-66
2022/09/30 04:31:52;;;;;;;6.70;5.43;;;7.80;99.90;;;;;;4890821;29;20061;-64
2022/09/30 04:34:18;;;;;;;7.25;5.78;;;7.80;99.90;;;;;;4882289;29;20045;-63
2022/09/30 04:36:44;;;;;;;11.13;6.43;;;7.80;99.90;;;;;;4894934;29;20055;-63
2022/09/30 04:39:09;;;;;;;6.78;6.00;;;7.80;99.90;;;;;;4897532;29;20467;-65
2022/09/30 04:41:35;;;;;;;8.73;5.85;;;8.00;99.90;;;;;;4899131;29;20113;-65
2022/09/30 04:44:05;;;;;;;9.75;6.15;;;7.80;99.90;;;;;;4895338;29;20048;-64
2022/09/30 04:46:33;;;;;;;12.27;6.15;;;7.80;99.90;;;;;;4892456;29;20049;-65
2022/09/30 04:48:59;;;;;;;7.70;6.25;;;7.80;99.90;;;;;;4882854;29;20075;-66
2022/09/30 04:51:25;;;;;;;6.82;5.63;;;7.80;99.90;;;;;;4891803;29;20056;-65
2022/09/30 04:53:51;;;;;;;7.68;6.10;;;7.80;99.90;;;;;;4897344;29;20376;-64
2022/09/30 04:56:17;;;;;;;9.73;6.30;;;7.80;99.90;;;;;;4898922;29;20084;-65
2022/09/30 04:58:43;;;;;;;9.93;6.65;;;7.80;99.90;;;;;;4895857;29;20059;-64
2022/09/30 05:01:11;;;;;;;8.32;6.05;;;7.80;99.90;;;;;;4880620;29;20135;-64
2022/09/30 05:03:37;;;;;;;7.32;5.63;;;7.80;99.90;;;;;;4898792;29;20059;-63
2022/09/30 05:06:03;;;;;;;8.60;6.13;;;7.80;99.90;;;;;;4896110;29;20052;-64
2022/09/30 05:08:32;;;;;;;6.65;5.70;;;7.80;99.90;;;;;;4897240;29;20052;-64
2022/09/30 05:11:04;;;;;;;9.98;6.63;;;7.80;99.90;;;;;;4897457;29;20045;-63
2022/09/30 05:13:35;;;;;;;7.65;5.97;;;7.70;99.90;;;;;;4898975;29;20075;-64
2022/09/30 05:16:01;;;;;;;10.13;6.22;;;7.80;99.90;;;;;;4896050;29;20044;-63
2022/09/30 05:18:28;;;;;;;7.55;6.45;;;7.80;99.90;;;;;;4897152;29;20064;-64
2022/09/30 05:20:58;;;;;;;9.13;6.20;;;7.70;99.90;;;;;;4897823;29;20076;-63
2022/09/30 05:23:25;;;;;;;8.77;6.70;;;7.70;99.90;;;;;;4894932;29;20060;-63
2022/09/30 05:25:52;;;;;;;10.48;6.97;;;8.70;99.90;;;;;;4893679;29;20052;-64
2022/09/30 05:28:17;;;;;;;6.82;6.00;;;7.70;99.90;;;;;;4897083;29;20045;-65
2022/09/30 05:30:44;;;;;;;9.30;7.10;;;7.70;99.90;;;;;;4896028;29;20060;-64
2022/09/30 05:33:11;;;;;;;9.32;7.38;;;7.70;99.90;;;;;;4898726;29;20057;-65
2022/09/30 05:35:38;;;;;;;8.85;6.65;;;7.70;99.90;;;;;;4895461;29;20091;-63
2022/09/30 05:38:03;;;;;;;9.30;7.07;;;7.70;99.90;;;;;;4895114;29;20072;-64
2022/09/30 05:40:30;;;;;;;11.18;7.07;;;7.70;99.90;;;;;;4898000;29;20090;-64
2022/09/30 05:42:56;;;;;;;10.60;7.57;;;7.70;99.90;;;;;;4898777;29;20052;-64
2022/09/30 05:45:23;;;;;;;11.10;7.05;;;7.70;99.90;;;;;;4899136;29;20047;-64
2022/09/30 05:47:54;;;;;;;9.35;7.53;;;7.90;99.90;;;;;;4894550;29;20105;-65
2022/09/30 05:50:21;;;;;;;10.15;7.07;;;7.80;99.90;;;;;;4893660;29;20044;-65
2022/09/30 05:52:48;;;;;;;10.07;6.82;;;7.70;99.90;;;;;;4873343;29;20056;-65
2022/09/30 05:55:15;;;;;;;13.63;7.25;;;7.80;99.90;;;;;;4897122;29;20052;-63
2022/09/30 05:57:42;;;;;;;9.95;7.45;;;7.80;99.90;;;;;;4877872;29;20048;-65
2022/09/30 06:00:08;;;;;;;10.13;7.55;;;7.80;99.90;;;;;;4900404;29;20044;-65
2022/09/30 06:02:37;;;;;;;10.82;6.80;;;7.90;99.90;;;;;;4895847;29;20048;-64
2022/09/30 06:05:04;;;;;;;10.88;7.50;;;7.90;99.90;;;;;;4865909;29;20140;-64
2022/09/30 06:07:30;;;;;;;10.10;7.40;;;7.90;99.90;;;;;;4908052;29;20044;-63
2022/09/30 06:09:55;;;;;;;10.88;7.82;;;8.00;99.90;;;;;;4892488;29;20044;-64
2022/09/30 06:12:21;;;;;;;10.75;8.35;;;8.00;99.90;;;;;;4898286;29;20045;-64
2022/09/30 06:14:46;;;;;;;10.68;8.25;;;8.00;99.90;;;;;;4891865;29;20037;-64
2022/09/30 06:17:12;;;;;;;14.82;7.78;;;8.10;99.90;;;;;;4878155;29;20517;-65
2022/09/30 06:19:38;;;;;;;11.05;8.27;;;8.20;99.90;;;;;;4893140;29;20045;-64
2022/09/30 06:22:03;;;;;;;12.75;7.57;;;8.20;99.90;;;;;;4881843;29;20041;-64
2022/09/30 06:24:29;;;;;;;10.05;7.82;;;8.20;99.90;;;;;;4896263;29;20055;-65
2022/09/30 06:26:55;;;;;;;10.65;7.80;;;8.20;99.90;;;;;;4881393;29;20087;-64
2022/09/30 06:29:21;;;;;;;12.00;7.75;;;8.20;99.90;;;;;;4897576;29;20072;-64
2022/09/30 06:31:47;;;;;;;11.48;7.90;;;8.30;99.90;;;;;;4897904;29;20053;-64
2022/09/30 06:34:12;;;;;;;9.60;6.90;;;8.30;99.90;;;;;;4898051;29;20068;-65
2022/09/30 06:36:38;;;;;;;11.45;7.53;;;8.40;99.90;;;;;;4899735;29;20053;-64
2022/09/30 06:39:04;;;;;;;9.35;6.95;;;8.40;99.90;;;;;;4897007;29;20043;-64
2022/09/30 06:41:30;;;;;;;11.15;7.68;;;8.40;99.90;;;;;;4897104;29;20053;-63
2022/09/30 06:43:56;;;;;;;10.90;7.43;;;8.50;99.90;;;;;;4896577;29;20096;-64
2022/09/30 06:46:23;;;;;;;11.80;6.57;;;8.50;99.90;;;;;;4883502;29;20124;-65
2022/09/30 06:48:56;;;;;;;10.45;6.93;;;8.60;99.90;;;;;;4893609;29;20116;-64
2022/09/30 06:51:24;;;;;;;13.00;6.57;;;8.70;99.90;;;;;;4877525;29;20675;-64
2022/09/30 06:53:51;;;;;;;10.05;7.00;;;8.80;99.90;;;;;;4898152;29;20048;-64
2022/09/30 06:56:19;;;;;;;9.05;5.88;;;8.90;99.90;;;;;;4896767;29;20077;-64
2022/09/30 06:58:45;;;;;;;;;;;9.00;99.90;;;;;;4897099;29;20040;-64
2022/09/30 07:01:13;;;;;;;10.13;5.07;;;9.10;99.90;;;;;;4896887;29;20383;-67
2022/09/30 07:03:40;;;;;;;9.35;5.60;;;9.20;99.90;;;;;;4896239;29;20049;-64
2022/09/30 07:06:07;;;;;;;7.73;5.47;;;9.30;99.90;;;;;;4897712;29;20411;-63
2022/09/30 07:08:35;;;;;;;10.70;5.20;;;9.40;99.90;;;;;;4896769;29;20292;-64
2022/09/30 07:11:13;;;;;;;7.05;5.07;;;9.40;99.90;;;;;;4888442;29;20052;-64
2022/09/30 07:13:42;;;;;;;7.20;5.18;;;9.50;99.90;;;;;;4894874;29;20404;-63
2022/09/30 07:16:10;;;;;;;9.40;5.45;;;9.60;99.90;;;;;;4875414;29;20079;-65
2022/09/30 07:18:37;;;;;;;8.77;4.93;;;9.70;99.90;;;;;;4875192;29;20130;-63
2022/09/30 07:21:03;;;;;;;6.45;4.57;;;9.80;99.90;;;;;;4876454;29;20056;-63
2022/09/30 07:23:30;;;;;;;5.30;3.60;;;9.80;99.90;;;;;;4898645;29;20055;-65
2022/09/30 07:25:59;;;;;;;10.33;4.90;;;9.90;99.90;;;;;;4892484;29;20087;-64
2022/09/30 07:28:28;;;;;;;5.65;4.32;;;10.00;99.90;;;;;;4880466;29;20052;-64
2022/09/30 07:30:57;;;;;;;6.70;5.00;;;10.10;99.90;;;;;;4891293;29;20068;-65
2022/09/30 07:33:27;;;;;;;8.07;4.10;;;10.50;99.90;;;;;;4905206;29;20048;-63
2022/09/30 07:35:57;;;;;;;6.70;4.05;;;10.60;99.90;;;;;;4895361;29;20060;-64
2022/09/30 07:38:27;;;;;;;5.18;3.55;;;10.60;99.90;;;;;;4892926;29;20411;-65
2022/09/30 07:41:06;;;;;;;4.47;3.47;;;10.80;99.90;;;;;;4896598;29;20517;-65
2022/09/30 07:43:39;;;;;;;6.20;3.78;;;10.80;99.90;;;;;;4863760;29;20105;-64
2022/09/30 07:46:09;;;;;;;5.72;3.97;;;10.90;99.90;;;;;;4895017;29;20052;-65
2022/09/30 07:48:43;;;;;;;5.20;3.88;;;10.90;99.90;;;;;;4895055;29;20148;-66
2022/09/30 07:51:18;;;;;;;5.72;4.47;;;11.00;99.90;;;;;;4862596;29;20444;-65
2022/09/30 07:53:45;;;;;;;5.18;3.58;;;11.10;99.90;;;;;;4875302;29;20045;-64
2022/09/30 07:56:13;;;;;;;6.78;4.53;;;11.40;99.90;;;;;;4891678;29;20049;-65
2022/09/30 07:58:39;;;;;;;8.90;3.73;;;11.40;99.90;;;;;;4880941;29;20056;-63
2022/09/30 08:01:08;;;;;;;5.70;3.50;;;11.30;99.90;;;;;;4891411;29;20432;-66
2022/09/30 08:03:38;;;;;;;5.32;3.95;;;11.50;99.90;;;;;;4868675;29;20132;-66
2022/09/30 08:06:06;;;;;;;5.10;3.45;;;11.80;99.90;;;;;;4894381;29;20053;-67
2022/09/30 08:08:31;;;;;;;;;;;11.90;99.90;;;;;;4891842;29;20049;-67
2022/09/30 08:10:59;;;;;;;4.97;3.47;;;12.00;99.90;;;;;;4876773;29;20006;-67
2022/09/30 08:13:24;;;;;;;6.22;3.80;;;12.20;99.90;;;;;;4893546;29;20052;-66
2022/09/30 08:15:50;;;;;;;5.65;3.58;;;12.30;99.90;;;;;;4877576;29;20045;-65
2022/09/30 08:18:15;;;;;;;5.85;3.45;;;12.30;99.90;;;;;;4895484;29;20052;-65
2022/09/30 08:20:41;;;;;;;6.57;3.65;;;12.40;99.90;;;;;;4878453;29;20491;-65
2022/09/30 08:23:07;;;;;;;6.32;3.40;;;12.40;99.90;;;;;;4874831;29;20098;-64
2022/09/30 08:25:32;;;;;;;5.75;3.90;;;12.50;99.90;;;;;;4895747;29;20044;-64
2022/09/30 08:27:58;;;;;;;7.95;4.20;;;12.50;99.90;;;;;;4879390;29;20440;-63
2022/09/30 08:30:24;;;;;;;7.60;4.30;;;12.60;99.90;;;;;;4875698;29;20057;-65
2022/09/30 08:32:50;;;;;;;4.88;3.80;;;12.70;99.90;;;;;;4896245;29;20044;-65
2022/09/30 08:35:15;;;;;;;5.38;3.95;;;12.80;99.90;;;;;;4900501;29;20047;-66
2022/09/30 08:37:41;;;;;;;6.15;4.03;;;13.00;99.90;;;;;;4882564;29;20356;-66
2022/09/30 08:40:20;;;;;;;5.63;4.15;;;13.10;99.90;;;;;;4897788;29;20502;-64
2022/09/30 08:42:59;;;;;;;7.65;4.13;;;13.30;99.90;;;;;;4898186;29;20083;-65
2022/09/30 08:45:39;;;;;;;;;;;13.40;99.90;;;;;;4896627;29;20083;-65
2022/09/30 08:48:28;;;;;;;6.97;3.70;;;13.60;99.90;;;;;;4889414;29;19927;-67
2022/09/30 08:51:05;;;;;;;7.10;4.15;;;13.80;99.90;;;;;;4897448;29;20105;-64
2022/09/30 08:53:38;;;;;;;6.57;4.18;;;14.00;99.90;;;;;;4873219;29;20068;-66
2022/09/30 08:56:06;;;;;;;7.50;4.43;;;14.20;99.90;;;;;;4898028;29;20052;-63
2022/09/30 08:58:39;;;;;;;6.90;5.03;;;14.40;99.90;;;;;;4879834;29;20056;-66
2022/09/30 09:01:29;;;;;;;6.40;4.50;;;14.60;99.90;;;;;;4895221;29;20041;-65
2022/09/30 09:03:57;;;;;;;6.07;3.80;;;14.80;99.90;;;;;;4897590;29;20388;-65
2022/09/30 09:06:30;;;;;;;5.03;3.80;;;14.80;99.90;;;;;;4898015;29;20056;-65
2022/09/30 09:09:19;;;;;;;6.05;4.13;;;15.00;99.90;;;;;;4902322;29;20043;-63
2022/09/30 09:11:58;;;;;;;6.40;4.00;;;15.10;99.90;;;;;;4895784;29;20060;-66
2022/09/30 09:15:10;;;;;;;7.47;4.20;;;15.10;99.90;;;;;;4890840;29;20057;-64
2022/09/30 09:18:06;;;;;;;8.60;4.20;;;15.30;99.90;;;;;;4874995;29;20067;-65
2022/09/30 09:20:37;;;;;;;6.60;4.20;;;15.50;99.90;;;;;;4898182;29;20040;-64
2022/09/30 09:23:07;;;;;;;8.63;3.90;;;15.70;99.90;;;;;;4896854;29;20037;-66
2022/09/30 09:25:33;;;;;;;5.20;3.92;;;15.90;99.90;;;;;;4899025;29;20051;-64
2022/09/30 09:28:01;;;;;;;5.38;3.90;;;16.00;99.90;;;;;;4882226;29;20077;-65
2022/09/30 09:30:33;;;;;;;5.75;4.30;;;16.20;99.90;;;;;;4882172;29;20124;-65
2022/09/30 09:33:13;;;;;;;6.47;4.70;;;16.20;99.90;;;;;;4899691;29;20048;-66
2022/09/30 09:35:51;;;;;;;6.25;3.75;;;16.40;99.90;;;;;;4897499;29;20044;-65
2022/09/30 09:38:34;;;;;;;7.72;4.63;;;16.60;99.90;;;;;;4891834;29;20143;-64
2022/09/30 09:41:15;;;;;;;6.38;4.03;;;16.70;99.90;;;;;;4882105;29;20036;-65
2022/09/30 09:44:06;;;;;;;6.88;3.97;;;16.90;99.90;;;;;;4897747;29;20491;-66
2022/09/30 09:46:54;;;;;;;6.50;4.38;;;17.00;99.90;;;;;;4895083;29;20063;-66
2022/09/30 09:49:21;;;;;;;7.53;4.20;;;17.00;99.90;;;;;;4895956;29;20040;-65
2022/09/30 09:52:11;;;;;;;7.00;3.95;;;17.20;99.90;;;;;;4901070;29;20075;-66
2022/09/30 09:54:55;;;;;;;8.07;4.32;;;17.30;99.90;;;;;;4886462;29;20625;-65
2022/09/30 09:57:26;;;;;;;5.45;3.85;;;17.30;99.90;;;;;;4905220;29;20128;-64
2022/09/30 09:59:59;;;;;;;5.53;3.70;;;17.40;99.90;;;;;;4914169;29;20418;-65
2022/09/30 10:02:30;;;;;;;6.05;4.28;;;17.50;99.90;;;;;;4906592;29;20415;-65
2022/09/30 10:05:00;;;;;;;6.85;4.13;;;17.60;99.90;;;;;;4901655;29;20067;-65
2022/09/30 10:07:31;;;;;;;5.28;3.58;;;17.80;99.90;;;;;;4906056;29;20446;-65
2022/09/30 10:10:14;;;;;;;4.43;2.80;;;18.00;99.90;;;;;;4902659;29;20041;-66
2022/09/30 10:12:40;;;;;;;5.82;3.10;;;18.20;99.90;;;;;;4902877;29;20049;-66
2022/09/30 10:15:21;;;;;;;4.97;2.95;;;18.20;99.90;;;;;;4905744;29;20039;-65
2022/09/30 10:17:52;;;;;;;4.15;2.97;;;18.40;99.90;;;;;;4902395;29;20052;-64
2022/09/30 10:20:27;;;;;;;4.07;2.42;;;18.80;99.90;;;;;;4899404;29;20120;-65
2022/09/30 10:23:16;;;;;;;2.45;1.95;;;19.00;99.90;;;;;;4900808;29;20430;-66
2022/09/30 10:25:58;;;;;;;3.72;2.53;;;19.20;99.90;;;;;;4911576;29;20032;-64
2022/09/30 10:28:30;;;;;;;4.03;2.50;;;19.40;99.90;;;;;;4900758;29;20052;-66
2022/09/30 10:31:00;;;;;;;5.85;2.33;;;19.70;99.90;;;;;;4902320;29;20032;-65
2022/09/30 10:33:43;;;;;;;3.25;2.30;;;19.90;99.90;;;;;;4901815;29;20163;-65
2022/09/30 10:36:20;;;;;;;3.38;2.35;;;20.30;99.90;;;;;;4899139;29;20060;-65
2022/09/30 10:38:58;;;;;;;3.70;2.45;;;20.40;99.90;;;;;;4897326;29;20041;-67
2022/09/30 10:41:27;;;;;;;4.13;2.70;;;20.40;99.90;;;;;;4902345;29;20049;-67
2022/09/30 10:44:01;;;;;;;4.65;2.65;;;20.60;99.90;;;;;;4907454;29;20055;-65
2022/09/30 10:46:34;;;;;;;4.18;2.65;;;20.90;99.90;;;;;;4898069;29;20391;-66
2022/09/30 10:49:27;;;;;;;4.50;3.40;;;21.00;99.90;;;;;;4903564;29;20044;-67
2022/09/30 10:51:55;;;;;;;6.25;3.30;;;21.10;99.60;;;;;;4901838;29;20059;-65
2022/09/30 10:54:48;;;;;;;4.00;3.60;;;21.00;99.90;;;;;;4907956;29;20120;-65
2022/09/30 10:57:27;;;;;;;4.88;3.22;;;21.20;99.40;;;;;;4895815;29;20052;-67
2022/09/30 11:00:05;;;;;;;4.88;3.67;;;21.40;99.60;;;;;;4896727;29;20559;-66
2022/09/30 11:02:45;;;;;;;3.65;3.15;;;21.50;99.10;;;;;;4905232;29;20040;-65
2022/09/30 11:05:21;;;;;;;5.18;3.50;;;21.70;98.30;;;;;;4879909;29;20037;-66
2022/09/30 11:08:03;;;;;;;3.75;2.90;;;21.80;98.60;;;;;;4880021;29;20041;-66
2022/09/30 11:10:48;;;;;;;7.18;2.92;;;22.10;97.50;;;;;;4879437;29;20053;-67
2022/09/30 11:13:27;;;;;;;4.80;2.65;;;22.00;96.40;;;;;;4862709;29;20056;-66
2022/09/30 11:16:23;;;;;;;4.20;2.55;;;21.90;96.70;;;;;;4880571;29;20084;-66
2022/09/30 11:19:23;;;;;;;3.50;2.20;;;22.10;96.20;;;;;;4859385;29;20440;-66
2022/09/30 11:22:26;;;;;;;2.80;1.90;;;22.20;95.80;;;;;;4876385;29;20113;-65
2022/09/30 11:24:54;;;;;;;2.63;1.48;;;22.40;95.40;;;;;;4873480;29;20076;-67
2022/09/30 11:27:28;;;;;;;2.67;1.58;;;22.50;94.20;;;;;;4876741;29;20052;-66
2022/09/30 11:30:00;;;;;;;3.08;1.65;;;22.50;92.20;;;;;;4870288;29;20069;-64
2022/09/30 11:32:47;;;;;;;2.97;1.70;;;22.10;92.40;;;;;;4878097;29;20084;-66
2022/09/30 11:35:19;;;;;;;2.60;1.50;;;22.00;93.40;;;;;;4870467;29;20037;-66
2022/09/30 11:37:55;;;;;;;6.35;1.80;;;22.20;93.10;;;;;;4876952;29;20061;-67
2022/09/30 11:40:36;;;;;;;3.30;1.55;;;21.90;92.20;;;;;;4876828;29;20052;-66
2022/09/30 11:43:16;;;;;;;3.65;1.40;;;21.80;92.80;;;;;;4863379;29;20053;-66
2022/09/30 11:45:54;;;;;;;3.20;1.67;;;21.80;92.70;;;;;;4880128;29;20136;-65
2022/09/30 11:48:45;;;;;;;3.13;1.42;;;21.90;90.40;;;;;;4886061;29;20388;-66
2022/09/30 11:51:25;;;;;;;1.90;1.10;;;21.60;89.80;;;;;;4881830;29;20052;-66
2022/09/30 11:54:03;;;;;;;1.48;1.10;;;21.70;91.50;;;;;;4879425;29;20424;-66
2022/09/30 11:57:02;;;;;;;3.38;1.60;;;22.30;90.20;;;;;;4876821;29;20045;-67
2022/09/30 11:59:35;;;;;;;2.53;1.40;;;22.50;87.20;;;;;;4862274;29;20037;-66
2022/09/30 12:02:03;;;;;;;4.28;1.40;;;22.00;87.90;;;;;;4875879;29;20043;-67
2022/09/30 12:04:38;;;;;;;2.75;1.33;;;21.30;90.10;;;;;;4888560;29;20057;-68
2022/09/30 12:07:55;;;;;;;1.83;1.30;;;21.50;91.50;;;;;;4893352;29;20128;-66
2022/09/30 12:10:30;;;;;;;2.42;1.30;;;22.00;88.00;;;;;;4867048;29;20080;-67
2022/09/30 12:13:02;;;;;;;2.47;1.40;;;22.50;88.20;;;;;;4899546;29;20041;-66
2022/09/30 12:15:29;;;;;;;2.88;1.50;;;22.40;85.90;;;;;;4884326;29;20059;-66
2022/09/30 12:18:00;;;;;;;4.32;1.40;;;21.80;86.80;;;;;;4900066;29;20040;-66
2022/09/30 12:21:08;;;;;;;2.78;1.40;;;21.40;89.00;;;;;;4890151;29;20053;-66
2022/09/30 12:23:43;;;;;;;1.73;1.17;;;21.30;91.00;;;;;;4893316;29;20083;-64
2022/09/30 12:26:11;;;;;;;5.97;1.40;;;21.20;89.80;;;;;;4900613;29;20045;-65
2022/09/30 12:31:57;;;;;;;2.92;1.15;;;20.20;90.10;;;;;;4899653;29;19923;-66
2022/09/30 12:34:35;;;;;;;2.60;1.20;;;20.00;90.90;;;;;;4899836;29;20239;-67
2022/09/30 12:37:32;;;;;;;2.58;1.17;;;20.00;91.00;;;;;;4900034;29;20052;-66
2022/09/30 12:40:29;;;;;;;5.65;1.67;;;19.90;91.20;;;;;;4899604;29;20514;-66
2022/09/30 12:43:02;;;;;;;2.35;1.35;;;19.80;91.70;;;;;;4899797;29;20052;-65
2022/09/30 12:45:56;;;;;;;2.63;1.40;;;19.50;92.00;;;;;;4899821;29;20128;-65
2022/09/30 12:48:27;;;;;;;3.05;1.40;;;19.20;92.20;;;;;;4898994;29;20124;-65
2022/09/30 12:50:56;;;;;;;3.15;1.40;;;19.00;92.70;;;;;;4900208;29;20084;-66
2022/09/30 12:53:37;;;;;;;1.70;1.13;;;18.80;93.60;;;;;;4898950;29;20089;-66
2022/09/30 12:56:13;;;;;;;4.32;1.55;;;18.70;94.20;;;;;;4891689;29;20052;-65
2022/09/30 12:58:49;;;;;;;2.88;1.02;;;18.60;94.30;;;;;;4884461;29;20100;-65
2022/09/30 13:01:31;;;;;;;1.40;1.00;;;18.40;94.10;;;;;;4876687;29;20052;-65
2022/09/30 13:03:59;;;;;;;2.30;1.02;;;18.30;94.20;;;;;;4889971;29;20062;-65
2022/09/30 13:06:46;;;;;;;4.15;1.30;;;18.10;94.80;;;;;;4903822;29;20059;-64
2022/09/30 13:09:19;;;;;;;1.73;0.90;;;17.90;94.60;;;;;;4908107;29;20080;-65
2022/09/30 13:11:55;;;;;;;2.45;1.17;;;17.80;95.60;;;;;;4881930;29;20383;-65
2022/09/30 13:14:34;;;;;;;;;;;17.80;95.20;;;;;;4883452;29;20060;-66
2022/09/30 13:17:08;;;;;;;2.70;1.30;;;17.80;95.70;;;;;;4891639;29;20036;-66
2022/09/30 13:19:40;;;;;;;3.67;1.60;;;17.80;95.50;;;;;;4872451;29;20072;-68
2022/09/30 13:22:28;;;;;;;4.63;1.70;;;17.70;95.50;;;;;;4883081;29;20383;-65
2022/09/30 13:25:01;;;;;;;2.30;1.15;;;17.60;94.50;;;;;;4898143;29;20116;-67
2022/09/30 13:27:48;;;;;;;4.07;1.48;;;17.40;95.10;;;;;;4899231;29;20136;-65
2022/09/30 13:30:17;;;;;;;3.45;1.13;;;17.60;95.60;;;;;;4895304;29;20218;-65
2022/09/30 13:32:46;;;;;;;2.50;1.48;;;17.50;95.70;;;;;;4897812;29;20049;-65
2022/09/30 13:35:34;;;;;;;5.57;1.60;;;17.50;95.90;;;;;;4898274;29;20045;-66
2022/09/30 13:38:12;;;;;;;3.22;1.80;;;17.40;96.00;;;;;;4897728;29;20049;-65
2022/09/30 13:41:19;;;;;;;3.35;1.90;;;17.20;95.70;;;;;;4898091;29;20048;-66
2022/09/30 13:44:02;;;;;;;8.27;2.17;;;17.10;96.20;;;;;;4891341;29;20085;-64
2022/09/30 13:46:48;;;;;;;3.78;1.92;;;17.10;96.50;;;;;;4880387;29;20056;-65
2022/09/30 13:49:25;;;;;;;3.05;1.90;;;16.80;96.50;;;;;;4898164;29;20138;-65
2022/09/30 13:51:53;;;;;;;4.03;2.10;;;16.90;96.70;;;;;;4897882;29;20041;-66
2022/09/30 13:54:36;;;;;;;3.80;2.20;;;17.00;96.60;;;;;;4898310;29;20792;-66
2022/09/30 13:57:05;;;;;;;3.95;2.30;;;16.90;96.70;;;;;;4880326;29;20053;-66
2022/09/30 14:00:03;;;;;;;7.95;2.33;;;16.90;97.00;;;;;;4897394;29;20044;-67
2022/09/30 14:02:47;;;;;;;3.83;2.72;;;16.90;97.80;;;;;;4880442;29;20149;-64